sensor_id;sensor_type;location;lat;lon;timestamp;P1;durP1;ratioP1;P2;durP2;ratioP2
9880;SDS011;4979;51.014;6.678;2023-08-20T00:00:34;12.48;;;9.45;;
9880;SDS011;4979;51.014;6.678;2023-08-20T00:03:04;13.05;;;10.13;;
9880;SDS011;4979;51.014;6.678;2023-08-20T00:05:37;12.15;;;8.70;;
9880;SDS011;4979;51.014;6.678;2023-08-20T00:08:03;13.52;;;8.82;;
9880;SDS011;4979;51.014;6.678;2023-08-20T00:10:29;10.80;;;8.55;;
9880;SDS011;4979;51.014;6.678;2023-08-20T00:12:55;9.95;;;8.55;;
9880;SDS011;4979;51.014;6.678;2023-08-20T00:15:21;15.48;;;8.13;;
9880;SDS011;4979;51.014;6.678;2023-08-20T00:17:51;9.98;;;8.25;;
9880;SDS011;4979;51.014;6.678;2023-08-20T00:20:17;10.25;;;7.95;;
9880;SDS011;4979;51.014;6.678;2023-08-20T00:22:43;10.18;;;7.75;;
9880;SDS011;4979;51.014;6.678;2023-08-20T00:25:13;12.60;;;7.68;;
9880;SDS011;4979;51.014;6.678;2023-08-20T00:27:39;9.77;;;8.27;;
9880;SDS011;4979;51.014;6.678;2023-08-20T00:30:06;16.67;;;9.43;;
9880;SDS011;4979;51.014;6.678;2023-08-20T00:32:33;12.52;;;8.40;;
9880;SDS011;4979;51.014;6.678;2023-08-20T00:34:59;9.27;;;7.97;;
9880;SDS011;4979;51.014;6.678;2023-08-20T00:37:24;10.35;;;8.45;;
9880;SDS011;4979;51.014;6.678;2023-08-20T00:39:50;13.13;;;9.07;;
9880;SDS011;4979;51.014;6.678;2023-08-20T00:42:16;10.20;;;9.15;;
9880;SDS011;4979;51.014;6.678;2023-08-20T00:44:42;13.85;;;8.73;;
9880;SDS011;4979;51.014;6.678;2023-08-20T00:47:09;11.65;;;8.07;;
9880;SDS011;4979;51.014;6.678;2023-08-20T00:49:35;12.18;;;9.55;;
9880;SDS011;4979;51.014;6.678;2023-08-20T00:52:01;13.48;;;9.13;;
9880;SDS011;4979;51.014;6.678;2023-08-20T00:54:28;11.48;;;8.73;;
9880;SDS011;4979;51.014;6.678;2023-08-20T00:56:54;19.33;;;9.73;;
9880;SDS011;4979;51.014;6.678;2023-08-20T00:59:20;13.15;;;8.93;;
9880;SDS011;4979;51.014;6.678;2023-08-20T01:01:46;11.80;;;9.30;;
9880;SDS011;4979;51.014;6.678;2023-08-20T01:04:12;13.20;;;8.88;;
9880;SDS011;4979;51.014;6.678;2023-08-20T01:09:41;13.80;;;10.18;;
9880;SDS011;4979;51.014;6.678;2023-08-20T01:12:23;12.38;;;9.35;;
9880;SDS011;4979;51.014;6.678;2023-08-20T01:14:50;11.80;;;9.85;;
9880;SDS011;4979;51.014;6.678;2023-08-20T01:17:16;15.85;;;10.50;;
9880;SDS011;4979;51.014;6.678;2023-08-20T01:19:41;14.63;;;9.88;;
9880;SDS011;4979;51.014;6.678;2023-08-20T01:30:40;11.90;;;9.30;;
9880;SDS011;4979;51.014;6.678;2023-08-20T01:33:08;12.45;;;9.25;;
9880;SDS011;4979;51.014;6.678;2023-08-20T01:35:35;13.70;;;10.02;;
9880;SDS011;4979;51.014;6.678;2023-08-20T01:38:01;14.48;;;11.43;;
9880;SDS011;4979;51.014;6.678;2023-08-20T01:40:26;13.32;;;10.93;;
9880;SDS011;4979;51.014;6.678;2023-08-20T01:42:52;15.88;;;10.75;;
9880;SDS011;4979;51.014;6.678;2023-08-20T01:45:18;15.35;;;10.05;;
9880;SDS011;4979;51.014;6.678;2023-08-20T01:47:43;15.48;;;10.50;;
9880;SDS011;4979;51.014;6.678;2023-08-20T01:50:09;14.40;;;11.25;;
9880;SDS011;4979;51.014;6.678;2023-08-20T01:52:35;14.65;;;9.95;;
9880;SDS011;4979;51.014;6.678;2023-08-20T01:55:01;13.52;;;9.95;;
9880;SDS011;4979;51.014;6.678;2023-08-20T01:57:26;13.45;;;9.63;;
9880;SDS011;4979;51.014;6.678;2023-08-20T01:59:52;12.50;;;9.68;;
9880;SDS011;4979;51.014;6.678;2023-08-20T02:02:17;13.25;;;8.75;;
9880;SDS011;4979;51.014;6.678;2023-08-20T02:04:43;14.35;;;10.50;;
9880;SDS011;4979;51.014;6.678;2023-08-20T02:07:08;11.98;;;9.93;;
9880;SDS011;4979;51.014;6.678;2023-08-20T02:09:34;16.15;;;10.70;;
9880;SDS011;4979;51.014;6.678;2023-08-20T02:11:59;12.88;;;11.10;;
9880;SDS011;4979;51.014;6.678;2023-08-20T02:14:25;14.30;;;11.55;;
9880;SDS011;4979;51.014;6.678;2023-08-20T02:16:53;17.90;;;11.88;;
9880;SDS011;4979;51.014;6.678;2023-08-20T02:19:18;15.38;;;11.27;;
9880;SDS011;4979;51.014;6.678;2023-08-20T02:21:44;14.30;;;10.80;;
9880;SDS011;4979;51.014;6.678;2023-08-20T02:24:09;12.55;;;10.48;;
9880;SDS011;4979;51.014;6.678;2023-08-20T02:26:35;19.17;;;11.23;;
9880;SDS011;4979;51.014;6.678;2023-08-20T02:29:00;14.32;;;10.32;;
9880;SDS011;4979;51.014;6.678;2023-08-20T02:31:27;13.60;;;10.18;;
9880;SDS011;4979;51.014;6.678;2023-08-20T02:33:52;12.75;;;10.95;;
9880;SDS011;4979;51.014;6.678;2023-08-20T02:36:18;13.63;;;10.02;;
9880;SDS011;4979;51.014;6.678;2023-08-20T02:38:44;13.45;;;10.15;;
9880;SDS011;4979;51.014;6.678;2023-08-20T02:41:10;13.68;;;9.88;;
9880;SDS011;4979;51.014;6.678;2023-08-20T02:43:37;15.57;;;10.07;;
9880;SDS011;4979;51.014;6.678;2023-08-20T02:46:02;14.93;;;10.85;;
9880;SDS011;4979;51.014;6.678;2023-08-20T02:48:28;10.43;;;9.32;;
9880;SDS011;4979;51.014;6.678;2023-08-20T02:50:54;15.63;;;10.85;;
9880;SDS011;4979;51.014;6.678;2023-08-20T02:53:20;15.40;;;11.52;;
9880;SDS011;4979;51.014;6.678;2023-08-20T02:55:46;12.90;;;9.88;;
9880;SDS011;4979;51.014;6.678;2023-08-20T02:58:12;13.63;;;9.98;;
9880;SDS011;4979;51.014;6.678;2023-08-20T03:00:37;12.50;;;10.80;;
9880;SDS011;4979;51.014;6.678;2023-08-20T03:03:03;13.50;;;10.30;;
9880;SDS011;4979;51.014;6.678;2023-08-20T03:05:32;14.75;;;10.57;;
9880;SDS011;4979;51.014;6.678;2023-08-20T03:07:57;14.10;;;10.15;;
9880;SDS011;4979;51.014;6.678;2023-08-20T03:10:23;12.43;;;10.20;;
9880;SDS011;4979;51.014;6.678;2023-08-20T03:12:49;17.58;;;11.93;;
9880;SDS011;4979;51.014;6.678;2023-08-20T03:15:14;15.05;;;11.73;;
9880;SDS011;4979;51.014;6.678;2023-08-20T03:17:40;12.63;;;11.25;;
9880;SDS011;4979;51.014;6.678;2023-08-20T03:20:06;15.27;;;11.73;;
9880;SDS011;4979;51.014;6.678;2023-08-20T03:22:32;17.30;;;11.73;;
9880;SDS011;4979;51.014;6.678;2023-08-20T03:24:58;13.93;;;11.40;;
9880;SDS011;4979;51.014;6.678;2023-08-20T03:27:23;14.52;;;11.38;;
9880;SDS011;4979;51.014;6.678;2023-08-20T03:29:49;12.75;;;11.38;;
9880;SDS011;4979;51.014;6.678;2023-08-20T03:32:17;17.38;;;11.98;;
9880;SDS011;4979;51.014;6.678;2023-08-20T03:34:43;18.48;;;12.45;;
9880;SDS011;4979;51.014;6.678;2023-08-20T03:37:08;17.50;;;12.02;;
9880;SDS011;4979;51.014;6.678;2023-08-20T03:39:34;15.27;;;11.48;;
9880;SDS011;4979;51.014;6.678;2023-08-20T03:42:00;15.45;;;12.02;;
9880;SDS011;4979;51.014;6.678;2023-08-20T03:44:25;19.85;;;12.77;;
9880;SDS011;4979;51.014;6.678;2023-08-20T03:46:51;18.65;;;13.20;;
9880;SDS011;4979;51.014;6.678;2023-08-20T03:49:16;18.75;;;12.85;;
9880;SDS011;4979;51.014;6.678;2023-08-20T03:51:42;17.90;;;12.60;;
9880;SDS011;4979;51.014;6.678;2023-08-20T03:54:08;17.60;;;13.23;;
9880;SDS011;4979;51.014;6.678;2023-08-20T03:56:34;19.05;;;12.57;;
9880;SDS011;4979;51.014;6.678;2023-08-20T03:59:00;17.98;;;11.95;;
9880;SDS011;4979;51.014;6.678;2023-08-20T04:01:25;20.75;;;12.88;;
9880;SDS011;4979;51.014;6.678;2023-08-20T04:03:51;17.38;;;12.50;;
9880;SDS011;4979;51.014;6.678;2023-08-20T04:06:16;18.13;;;12.13;;
9880;SDS011;4979;51.014;6.678;2023-08-20T04:08:42;14.43;;;12.27;;
9880;SDS011;4979;51.014;6.678;2023-08-20T04:11:07;17.80;;;12.15;;
9880;SDS011;4979;51.014;6.678;2023-08-20T04:13:33;16.20;;;11.82;;
9880;SDS011;4979;51.014;6.678;2023-08-20T04:15:58;17.27;;;12.73;;
9880;SDS011;4979;51.014;6.678;2023-08-20T04:18:24;17.55;;;13.07;;
9880;SDS011;4979;51.014;6.678;2023-08-20T04:20:50;20.20;;;15.73;;
9880;SDS011;4979;51.014;6.678;2023-08-20T04:23:17;17.95;;;13.43;;
9880;SDS011;4979;51.014;6.678;2023-08-20T04:25:43;18.92;;;14.45;;
9880;SDS011;4979;51.014;6.678;2023-08-20T04:28:09;17.80;;;13.35;;
9880;SDS011;4979;51.014;6.678;2023-08-20T04:30:36;17.05;;;13.02;;
9880;SDS011;4979;51.014;6.678;2023-08-20T04:33:02;18.15;;;14.73;;
9880;SDS011;4979;51.014;6.678;2023-08-20T04:35:27;22.10;;;14.00;;
9880;SDS011;4979;51.014;6.678;2023-08-20T04:37:53;25.33;;;14.65;;
9880;SDS011;4979;51.014;6.678;2023-08-20T04:40:18;19.30;;;15.15;;
9880;SDS011;4979;51.014;6.678;2023-08-20T04:42:44;20.70;;;14.32;;
9880;SDS011;4979;51.014;6.678;2023-08-20T04:45:10;17.70;;;13.80;;
9880;SDS011;4979;51.014;6.678;2023-08-20T04:47:38;22.80;;;14.45;;
9880;SDS011;4979;51.014;6.678;2023-08-20T04:50:04;20.45;;;15.52;;
9880;SDS011;4979;51.014;6.678;2023-08-20T04:52:33;21.95;;;15.23;;
9880;SDS011;4979;51.014;6.678;2023-08-20T04:54:59;20.50;;;13.93;;
9880;SDS011;4979;51.014;6.678;2023-08-20T04:57:25;20.88;;;13.95;;
9880;SDS011;4979;51.014;6.678;2023-08-20T04:59:51;21.13;;;13.98;;
9880;SDS011;4979;51.014;6.678;2023-08-20T05:02:16;17.02;;;13.50;;
9880;SDS011;4979;51.014;6.678;2023-08-20T05:04:42;23.67;;;15.55;;
9880;SDS011;4979;51.014;6.678;2023-08-20T05:07:08;15.60;;;12.80;;
9880;SDS011;4979;51.014;6.678;2023-08-20T05:09:34;23.75;;;14.57;;
9880;SDS011;4979;51.014;6.678;2023-08-20T05:11:59;19.23;;;13.75;;
9880;SDS011;4979;51.014;6.678;2023-08-20T05:14:25;17.10;;;12.70;;
9880;SDS011;4979;51.014;6.678;2023-08-20T05:16:51;19.92;;;13.40;;
9880;SDS011;4979;51.014;6.678;2023-08-20T05:19:16;19.67;;;13.38;;
9880;SDS011;4979;51.014;6.678;2023-08-20T05:21:42;17.67;;;14.13;;
9880;SDS011;4979;51.014;6.678;2023-08-20T05:24:07;18.95;;;12.55;;
9880;SDS011;4979;51.014;6.678;2023-08-20T05:26:34;16.38;;;12.48;;
9880;SDS011;4979;51.014;6.678;2023-08-20T05:29:00;17.33;;;13.23;;
9880;SDS011;4979;51.014;6.678;2023-08-20T05:31:25;18.90;;;12.52;;
9880;SDS011;4979;51.014;6.678;2023-08-20T05:33:51;19.95;;;12.73;;
9880;SDS011;4979;51.014;6.678;2023-08-20T05:36:16;14.95;;;12.80;;
9880;SDS011;4979;51.014;6.678;2023-08-20T05:38:42;17.17;;;12.65;;
9880;SDS011;4979;51.014;6.678;2023-08-20T05:41:08;21.67;;;13.18;;
9880;SDS011;4979;51.014;6.678;2023-08-20T05:43:34;16.23;;;12.35;;
9880;SDS011;4979;51.014;6.678;2023-08-20T05:46:01;18.20;;;13.02;;
9880;SDS011;4979;51.014;6.678;2023-08-20T05:48:27;17.58;;;12.40;;
9880;SDS011;4979;51.014;6.678;2023-08-20T05:50:53;15.30;;;12.52;;
9880;SDS011;4979;51.014;6.678;2023-08-20T05:53:18;18.48;;;11.88;;
9880;SDS011;4979;51.014;6.678;2023-08-20T05:55:44;16.88;;;13.18;;
9880;SDS011;4979;51.014;6.678;2023-08-20T05:58:10;19.70;;;13.23;;
9880;SDS011;4979;51.014;6.678;2023-08-20T06:00:36;16.17;;;13.15;;
9880;SDS011;4979;51.014;6.678;2023-08-20T06:03:01;19.83;;;12.73;;
9880;SDS011;4979;51.014;6.678;2023-08-20T06:05:28;18.70;;;13.02;;
9880;SDS011;4979;51.014;6.678;2023-08-20T06:07:53;17.67;;;12.70;;
9880;SDS011;4979;51.014;6.678;2023-08-20T06:10:19;20.45;;;13.85;;
9880;SDS011;4979;51.014;6.678;2023-08-20T06:12:44;18.73;;;11.70;;
9880;SDS011;4979;51.014;6.678;2023-08-20T06:15:10;19.48;;;12.85;;
9880;SDS011;4979;51.014;6.678;2023-08-20T06:17:35;18.67;;;13.65;;
9880;SDS011;4979;51.014;6.678;2023-08-20T06:20:01;17.02;;;13.45;;
9880;SDS011;4979;51.014;6.678;2023-08-20T06:22:26;28.00;;;13.75;;
9880;SDS011;4979;51.014;6.678;2023-08-20T06:24:52;18.52;;;13.48;;
9880;SDS011;4979;51.014;6.678;2023-08-20T06:27:17;22.08;;;13.48;;
9880;SDS011;4979;51.014;6.678;2023-08-20T06:29:43;22.70;;;13.18;;
9880;SDS011;4979;51.014;6.678;2023-08-20T06:32:08;19.73;;;13.15;;
9880;SDS011;4979;51.014;6.678;2023-08-20T06:34:34;19.38;;;13.57;;
9880;SDS011;4979;51.014;6.678;2023-08-20T06:37:01;19.02;;;13.85;;
9880;SDS011;4979;51.014;6.678;2023-08-20T06:39:27;21.75;;;12.98;;
9880;SDS011;4979;51.014;6.678;2023-08-20T06:41:52;22.08;;;13.10;;
9880;SDS011;4979;51.014;6.678;2023-08-20T06:44:18;17.90;;;13.10;;
9880;SDS011;4979;51.014;6.678;2023-08-20T06:46:43;18.67;;;12.90;;
9880;SDS011;4979;51.014;6.678;2023-08-20T06:49:09;18.70;;;13.48;;
9880;SDS011;4979;51.014;6.678;2023-08-20T06:51:34;17.10;;;13.68;;
9880;SDS011;4979;51.014;6.678;2023-08-20T06:54:01;18.00;;;13.68;;
9880;SDS011;4979;51.014;6.678;2023-08-20T06:56:27;17.42;;;13.35;;
9880;SDS011;4979;51.014;6.678;2023-08-20T06:58:52;19.10;;;13.52;;
9880;SDS011;4979;51.014;6.678;2023-08-20T07:01:19;20.45;;;13.43;;
9880;SDS011;4979;51.014;6.678;2023-08-20T07:03:44;16.05;;;13.15;;
9880;SDS011;4979;51.014;6.678;2023-08-20T07:06:10;19.23;;;14.48;;
9880;SDS011;4979;51.014;6.678;2023-08-20T07:08:37;17.67;;;13.52;;
9880;SDS011;4979;51.014;6.678;2023-08-20T07:11:06;15.40;;;13.63;;
9880;SDS011;4979;51.014;6.678;2023-08-20T07:13:31;18.90;;;14.23;;
9880;SDS011;4979;51.014;6.678;2023-08-20T07:15:57;19.10;;;14.32;;
9880;SDS011;4979;51.014;6.678;2023-08-20T07:18:23;20.00;;;14.73;;
9880;SDS011;4979;51.014;6.678;2023-08-20T07:20:49;15.50;;;13.18;;
9880;SDS011;4979;51.014;6.678;2023-08-20T07:23:15;25.67;;;15.45;;
9880;SDS011;4979;51.014;6.678;2023-08-20T07:25:40;18.30;;;15.38;;
9880;SDS011;4979;51.014;6.678;2023-08-20T07:28:07;20.42;;;14.38;;
9880;SDS011;4979;51.014;6.678;2023-08-20T07:30:33;20.23;;;13.65;;
9880;SDS011;4979;51.014;6.678;2023-08-20T07:33:00;21.92;;;15.15;;
9880;SDS011;4979;51.014;6.678;2023-08-20T07:35:26;20.48;;;15.00;;
9880;SDS011;4979;51.014;6.678;2023-08-20T07:37:52;18.80;;;14.63;;
9880;SDS011;4979;51.014;6.678;2023-08-20T07:40:17;31.15;;;19.60;;
9880;SDS011;4979;51.014;6.678;2023-08-20T07:42:43;18.42;;;14.35;;
9880;SDS011;4979;51.014;6.678;2023-08-20T07:45:09;23.80;;;15.80;;
9880;SDS011;4979;51.014;6.678;2023-08-20T07:47:35;23.42;;;16.00;;
9880;SDS011;4979;51.014;6.678;2023-08-20T07:50:02;21.58;;;16.60;;
9880;SDS011;4979;51.014;6.678;2023-08-20T07:52:28;22.40;;;16.13;;
9880;SDS011;4979;51.014;6.678;2023-08-20T07:54:54;17.92;;;15.60;;
9880;SDS011;4979;51.014;6.678;2023-08-20T07:57:19;20.70;;;15.60;;
9880;SDS011;4979;51.014;6.678;2023-08-20T07:59:45;21.77;;;16.40;;
9880;SDS011;4979;51.014;6.678;2023-08-20T08:02:11;19.02;;;14.48;;
9880;SDS011;4979;51.014;6.678;2023-08-20T08:04:36;18.92;;;15.48;;
9880;SDS011;4979;51.014;6.678;2023-08-20T08:07:02;18.20;;;15.88;;
9880;SDS011;4979;51.014;6.678;2023-08-20T08:09:28;19.73;;;15.48;;
9880;SDS011;4979;51.014;6.678;2023-08-20T08:11:55;21.10;;;16.27;;
9880;SDS011;4979;51.014;6.678;2023-08-20T08:14:22;20.80;;;16.10;;
9880;SDS011;4979;51.014;6.678;2023-08-20T08:16:48;21.45;;;16.10;;
9880;SDS011;4979;51.014;6.678;2023-08-20T08:19:14;19.42;;;15.55;;
9880;SDS011;4979;51.014;6.678;2023-08-20T08:21:39;21.23;;;16.52;;
9880;SDS011;4979;51.014;6.678;2023-08-20T08:24:06;20.75;;;18.13;;
9880;SDS011;4979;51.014;6.678;2023-08-20T08:26:33;20.35;;;17.73;;
9880;SDS011;4979;51.014;6.678;2023-08-20T08:29:00;23.35;;;17.70;;
9880;SDS011;4979;51.014;6.678;2023-08-20T08:31:26;21.80;;;17.90;;
9880;SDS011;4979;51.014;6.678;2023-08-20T08:33:52;22.20;;;17.05;;
9880;SDS011;4979;51.014;6.678;2023-08-20T08:36:17;22.02;;;16.20;;
9880;SDS011;4979;51.014;6.678;2023-08-20T08:38:43;18.02;;;15.98;;
9880;SDS011;4979;51.014;6.678;2023-08-20T08:41:13;16.70;;;14.60;;
9880;SDS011;4979;51.014;6.678;2023-08-20T08:43:39;20.25;;;14.80;;
9880;SDS011;4979;51.014;6.678;2023-08-20T08:46:11;20.55;;;15.85;;
9880;SDS011;4979;51.014;6.678;2023-08-20T08:48:39;21.52;;;16.25;;
9880;SDS011;4979;51.014;6.678;2023-08-20T08:51:07;18.50;;;14.77;;
9880;SDS011;4979;51.014;6.678;2023-08-20T08:53:32;18.00;;;14.93;;
9880;SDS011;4979;51.014;6.678;2023-08-20T08:55:58;17.92;;;15.70;;
9880;SDS011;4979;51.014;6.678;2023-08-20T08:58:24;18.73;;;15.57;;
9880;SDS011;4979;51.014;6.678;2023-08-20T09:00:50;20.45;;;15.23;;
9880;SDS011;4979;51.014;6.678;2023-08-20T09:03:17;18.55;;;15.25;;
9880;SDS011;4979;51.014;6.678;2023-08-20T09:05:49;18.10;;;12.75;;
9880;SDS011;4979;51.014;6.678;2023-08-20T09:08:19;16.50;;;12.45;;
9880;SDS011;4979;51.014;6.678;2023-08-20T09:10:51;14.23;;;12.55;;
9880;SDS011;4979;51.014;6.678;2023-08-20T09:13:21;16.95;;;12.80;;
9880;SDS011;4979;51.014;6.678;2023-08-20T09:15:51;18.10;;;12.63;;
9880;SDS011;4979;51.014;6.678;2023-08-20T09:18:17;14.80;;;12.05;;
9880;SDS011;4979;51.014;6.678;2023-08-20T09:20:43;16.45;;;11.70;;
9880;SDS011;4979;51.014;6.678;2023-08-20T09:23:12;12.68;;;11.23;;
9880;SDS011;4979;51.014;6.678;2023-08-20T09:25:43;12.60;;;10.75;;
9880;SDS011;4979;51.014;6.678;2023-08-20T09:28:10;13.00;;;9.98;;
9880;SDS011;4979;51.014;6.678;2023-08-20T09:30:36;13.30;;;10.35;;
9880;SDS011;4979;51.014;6.678;2023-08-20T09:33:06;13.63;;;10.07;;
9880;SDS011;4979;51.014;6.678;2023-08-20T09:35:35;11.70;;;9.15;;
9880;SDS011;4979;51.014;6.678;2023-08-20T09:38:01;11.73;;;9.07;;
9880;SDS011;4979;51.014;6.678;2023-08-20T09:40:28;13.60;;;9.70;;
9880;SDS011;4979;51.014;6.678;2023-08-20T09:42:54;12.00;;;9.27;;
9880;SDS011;4979;51.014;6.678;2023-08-20T09:45:22;11.80;;;9.45;;
9880;SDS011;4979;51.014;6.678;2023-08-20T09:47:50;10.57;;;8.93;;
9880;SDS011;4979;51.014;6.678;2023-08-20T09:50:22;12.82;;;9.25;;
9880;SDS011;4979;51.014;6.678;2023-08-20T09:52:54;13.40;;;10.63;;
9880;SDS011;4979;51.014;6.678;2023-08-20T09:55:22;12.05;;;10.73;;
9880;SDS011;4979;51.014;6.678;2023-08-20T09:57:53;13.25;;;9.52;;
9880;SDS011;4979;51.014;6.678;2023-08-20T10:00:19;11.73;;;8.10;;
9880;SDS011;4979;51.014;6.678;2023-08-20T10:02:46;12.65;;;10.65;;
9880;SDS011;4979;51.014;6.678;2023-08-20T10:05:12;11.75;;;9.75;;
9880;SDS011;4979;51.014;6.678;2023-08-20T10:07:39;12.85;;;9.43;;
9880;SDS011;4979;51.014;6.678;2023-08-20T10:10:06;10.57;;;9.57;;
9880;SDS011;4979;51.014;6.678;2023-08-20T10:12:33;9.38;;;7.85;;
9880;SDS011;4979;51.014;6.678;2023-08-20T10:15:00;11.02;;;8.93;;
9880;SDS011;4979;51.014;6.678;2023-08-20T10:17:28;11.65;;;9.18;;
9880;SDS011;4979;51.014;6.678;2023-08-20T10:19:55;9.80;;;8.88;;
9880;SDS011;4979;51.014;6.678;2023-08-20T10:22:25;10.05;;;8.93;;
9880;SDS011;4979;51.014;6.678;2023-08-20T10:25:00;11.25;;;9.95;;
9880;SDS011;4979;51.014;6.678;2023-08-20T10:27:30;10.20;;;8.27;;
9880;SDS011;4979;51.014;6.678;2023-08-20T10:30:00;12.75;;;8.85;;
9880;SDS011;4979;51.014;6.678;2023-08-20T10:35:15;10.27;;;8.65;;
9880;SDS011;4979;51.014;6.678;2023-08-20T10:38:01;12.30;;;8.40;;
9880;SDS011;4979;51.014;6.678;2023-08-20T10:40:47;8.55;;;7.57;;
9880;SDS011;4979;51.014;6.678;2023-08-20T10:43:32;10.05;;;7.97;;
9880;SDS011;4979;51.014;6.678;2023-08-20T10:46:19;8.20;;;7.22;;
9880;SDS011;4979;51.014;6.678;2023-08-20T10:48:56;12.95;;;8.20;;
9880;SDS011;4979;51.014;6.678;2023-08-20T10:56:41;8.55;;;6.50;;
9880;SDS011;4979;51.014;6.678;2023-08-20T10:59:30;8.07;;;6.88;;
9880;SDS011;4979;51.014;6.678;2023-08-20T11:01:56;11.23;;;6.65;;
9880;SDS011;4979;51.014;6.678;2023-08-20T11:04:24;7.57;;;6.60;;
9880;SDS011;4979;51.014;6.678;2023-08-20T11:07:03;8.30;;;7.07;;
9880;SDS011;4979;51.014;6.678;2023-08-20T11:09:29;7.15;;;6.40;;
9880;SDS011;4979;51.014;6.678;2023-08-20T11:11:56;7.95;;;6.53;;
9880;SDS011;4979;51.014;6.678;2023-08-20T11:14:25;7.13;;;6.43;;
9880;SDS011;4979;51.014;6.678;2023-08-20T11:16:50;7.47;;;6.70;;
9880;SDS011;4979;51.014;6.678;2023-08-20T11:19:20;7.43;;;6.32;;
9880;SDS011;4979;51.014;6.678;2023-08-20T11:21:46;7.65;;;6.43;;
9880;SDS011;4979;51.014;6.678;2023-08-20T11:24:13;9.93;;;7.80;;
9880;SDS011;4979;51.014;6.678;2023-08-20T11:26:39;9.50;;;6.95;;
9880;SDS011;4979;51.014;6.678;2023-08-20T11:29:09;7.32;;;6.60;;
9880;SDS011;4979;51.014;6.678;2023-08-20T11:31:37;7.07;;;6.18;;
9880;SDS011;4979;51.014;6.678;2023-08-20T11:34:04;12.90;;;6.65;;
9880;SDS011;4979;51.014;6.678;2023-08-20T11:36:30;6.93;;;6.22;;
9880;SDS011;4979;51.014;6.678;2023-08-20T11:38:57;7.65;;;6.22;;
9880;SDS011;4979;51.014;6.678;2023-08-20T11:41:23;7.15;;;5.47;;
9880;SDS011;4979;51.014;6.678;2023-08-20T11:43:50;5.47;;;4.97;;
9880;SDS011;4979;51.014;6.678;2023-08-20T11:46:20;6.47;;;5.50;;
9880;SDS011;4979;51.014;6.678;2023-08-20T11:49:04;6.10;;;4.85;;
9880;SDS011;4979;51.014;6.678;2023-08-20T11:51:37;4.95;;;4.45;;
9880;SDS011;4979;51.014;6.678;2023-08-20T11:54:08;5.10;;;4.57;;
9880;SDS011;4979;51.014;6.678;2023-08-20T11:56:47;6.53;;;4.72;;
9880;SDS011;4979;51.014;6.678;2023-08-20T11:59:19;6.50;;;4.63;;
9880;SDS011;4979;51.014;6.678;2023-08-20T12:01:58;5.90;;;4.95;;
9880;SDS011;4979;51.014;6.678;2023-08-20T12:04:25;6.82;;;6.10;;
9880;SDS011;4979;51.014;6.678;2023-08-20T12:07:02;6.15;;;5.55;;
9880;SDS011;4979;51.014;6.678;2023-08-20T12:09:30;6.63;;;6.03;;
9880;SDS011;4979;51.014;6.678;2023-08-20T12:12:02;6.38;;;5.53;;
9880;SDS011;4979;51.014;6.678;2023-08-20T12:14:30;5.93;;;5.25;;
9880;SDS011;4979;51.014;6.678;2023-08-20T12:16:56;6.57;;;5.40;;
9880;SDS011;4979;51.014;6.678;2023-08-20T12:19:22;8.30;;;5.60;;
9880;SDS011;4979;51.014;6.678;2023-08-20T12:21:48;7.18;;;5.30;;
9880;SDS011;4979;51.014;6.678;2023-08-20T12:24:14;5.57;;;5.07;;
9880;SDS011;4979;51.014;6.678;2023-08-20T12:26:40;7.50;;;4.93;;
9880;SDS011;4979;51.014;6.678;2023-08-20T12:29:06;6.40;;;5.78;;
9880;SDS011;4979;51.014;6.678;2023-08-20T12:31:32;7.75;;;5.68;;
9880;SDS011;4979;51.014;6.678;2023-08-20T12:33:58;6.50;;;5.40;;
9880;SDS011;4979;51.014;6.678;2023-08-20T12:36:24;6.47;;;5.20;;
9880;SDS011;4979;51.014;6.678;2023-08-20T12:38:50;7.68;;;5.78;;
9880;SDS011;4979;51.014;6.678;2023-08-20T12:41:15;9.52;;;6.15;;
9880;SDS011;4979;51.014;6.678;2023-08-20T12:43:41;6.75;;;5.35;;
9880;SDS011;4979;51.014;6.678;2023-08-20T12:46:07;6.07;;;5.25;;
9880;SDS011;4979;51.014;6.678;2023-08-20T12:48:32;6.53;;;5.65;;
9880;SDS011;4979;51.014;6.678;2023-08-20T12:50:58;7.88;;;5.85;;
9880;SDS011;4979;51.014;6.678;2023-08-20T12:53:24;7.10;;;5.60;;
9880;SDS011;4979;51.014;6.678;2023-08-20T12:55:49;7.47;;;5.90;;
9880;SDS011;4979;51.014;6.678;2023-08-20T12:58:15;8.70;;;5.63;;
9880;SDS011;4979;51.014;6.678;2023-08-20T13:00:41;7.65;;;5.70;;
9880;SDS011;4979;51.014;6.678;2023-08-20T13:03:07;10.57;;;5.97;;
9880;SDS011;4979;51.014;6.678;2023-08-20T13:05:34;8.00;;;5.22;;
9880;SDS011;4979;51.014;6.678;2023-08-20T13:08:00;7.90;;;6.10;;
9880;SDS011;4979;51.014;6.678;2023-08-20T13:10:26;7.90;;;5.55;;
9880;SDS011;4979;51.014;6.678;2023-08-20T13:12:52;6.88;;;5.50;;
9880;SDS011;4979;51.014;6.678;2023-08-20T13:15:19;5.57;;;5.05;;
9880;SDS011;4979;51.014;6.678;2023-08-20T13:17:47;5.57;;;4.95;;
9880;SDS011;4979;51.014;6.678;2023-08-20T13:20:15;9.82;;;4.93;;
9880;SDS011;4979;51.014;6.678;2023-08-20T13:22:47;6.90;;;5.38;;
9880;SDS011;4979;51.014;6.678;2023-08-20T13:25:13;6.68;;;5.18;;
9880;SDS011;4979;51.014;6.678;2023-08-20T13:27:40;5.57;;;4.88;;
9880;SDS011;4979;51.014;6.678;2023-08-20T13:30:06;5.93;;;5.32;;
9880;SDS011;4979;51.014;6.678;2023-08-20T13:32:33;6.00;;;4.97;;
9880;SDS011;4979;51.014;6.678;2023-08-20T13:35:00;7.80;;;5.18;;
9880;SDS011;4979;51.014;6.678;2023-08-20T13:37:25;6.20;;;5.55;;
9880;SDS011;4979;51.014;6.678;2023-08-20T13:39:52;8.50;;;6.22;;
9880;SDS011;4979;51.014;6.678;2023-08-20T13:42:18;8.70;;;6.57;;
9880;SDS011;4979;51.014;6.678;2023-08-20T13:44:43;6.28;;;5.68;;
9880;SDS011;4979;51.014;6.678;2023-08-20T13:47:09;5.60;;;5.10;;
9880;SDS011;4979;51.014;6.678;2023-08-20T13:49:34;7.85;;;6.13;;
9880;SDS011;4979;51.014;6.678;2023-08-20T13:52:00;6.53;;;5.85;;
9880;SDS011;4979;51.014;6.678;2023-08-20T13:54:25;9.07;;;5.40;;
9880;SDS011;4979;51.014;6.678;2023-08-20T13:56:51;7.88;;;5.82;;
9880;SDS011;4979;51.014;6.678;2023-08-20T13:59:16;7.65;;;5.22;;
9880;SDS011;4979;51.014;6.678;2023-08-20T14:01:42;8.75;;;6.18;;
9880;SDS011;4979;51.014;6.678;2023-08-20T14:04:08;5.97;;;5.38;;
9880;SDS011;4979;51.014;6.678;2023-08-20T14:06:33;7.25;;;5.47;;
9880;SDS011;4979;51.014;6.678;2023-08-20T14:08:59;5.57;;;5.07;;
9880;SDS011;4979;51.014;6.678;2023-08-20T14:11:24;8.55;;;6.07;;
9880;SDS011;4979;51.014;6.678;2023-08-20T14:13:50;6.07;;;5.38;;
9880;SDS011;4979;51.014;6.678;2023-08-20T14:16:16;7.70;;;6.18;;
9880;SDS011;4979;51.014;6.678;2023-08-20T14:18:42;9.48;;;5.57;;
9880;SDS011;4979;51.014;6.678;2023-08-20T14:21:07;5.80;;;5.22;;
9880;SDS011;4979;51.014;6.678;2023-08-20T14:23:33;5.78;;;5.20;;
9880;SDS011;4979;51.014;6.678;2023-08-20T14:26:00;6.32;;;5.38;;
9880;SDS011;4979;51.014;6.678;2023-08-20T14:28:25;7.38;;;5.75;;
9880;SDS011;4979;51.014;6.678;2023-08-20T14:30:51;7.93;;;5.43;;
9880;SDS011;4979;51.014;6.678;2023-08-20T14:33:19;5.78;;;5.10;;
9880;SDS011;4979;51.014;6.678;2023-08-20T14:35:45;5.25;;;4.70;;
9880;SDS011;4979;51.014;6.678;2023-08-20T14:38:11;6.05;;;5.20;;
9880;SDS011;4979;51.014;6.678;2023-08-20T14:40:37;5.38;;;4.88;;
9880;SDS011;4979;51.014;6.678;2023-08-20T14:43:06;6.80;;;4.88;;
9880;SDS011;4979;51.014;6.678;2023-08-20T14:45:33;5.88;;;5.28;;
9880;SDS011;4979;51.014;6.678;2023-08-20T14:47:58;6.50;;;5.30;;
9880;SDS011;4979;51.014;6.678;2023-08-20T14:50:24;6.88;;;4.90;;
9880;SDS011;4979;51.014;6.678;2023-08-20T14:52:49;5.55;;;4.20;;
9880;SDS011;4979;51.014;6.678;2023-08-20T14:55:20;5.88;;;5.00;;
9880;SDS011;4979;51.014;6.678;2023-08-20T14:57:46;7.13;;;4.53;;
9880;SDS011;4979;51.014;6.678;2023-08-20T15:00:12;5.45;;;4.93;;
9880;SDS011;4979;51.014;6.678;2023-08-20T15:02:41;7.75;;;5.05;;
9880;SDS011;4979;51.014;6.678;2023-08-20T15:05:10;7.53;;;4.95;;
9880;SDS011;4979;51.014;6.678;2023-08-20T15:07:45;6.82;;;5.13;;
9880;SDS011;4979;51.014;6.678;2023-08-20T15:10:11;10.82;;;5.35;;
9880;SDS011;4979;51.014;6.678;2023-08-20T15:12:40;8.88;;;5.25;;
9880;SDS011;4979;51.014;6.678;2023-08-20T15:15:07;6.65;;;5.00;;